Time;durP1;ratioP1;P1;durP2;ratioP2;P2;SDS_P1;SDS_P2;PMS_P1;PMS_P2;Temp;Humidity;BMP_temperature;BMP_pressure;BME280_temperature;BME280_humidity;BME280_pressure;Samples;Min_cycle;Max_cycle;Signal;HPM_P1;HPM_P2
2023/12/28 00:00:08;;;;;;;7.35;3.75;;;9.90;99.90;;;;;;5107686;27;20094;-60
2023/12/28 00:02:33;;;;;;;7.47;3.78;;;10.10;99.90;;;;;;5011364;28;20038;-60
2023/12/28 00:04:59;;;;;;;7.45;3.60;;;9.90;99.90;;;;;;5028601;28;20044;-60
2023/12/28 00:07:25;;;;;;;9.77;4.10;;;9.90;99.90;;;;;;5028871;28;20076;-59
2023/12/28 00:09:51;;;;;;;7.45;3.80;;;10.10;99.90;;;;;;5028810;28;21522;-59
2023/12/28 00:12:16;;;;;;;8.50;3.85;;;9.90;99.90;;;;;;5029399;28;20049;-59
2023/12/28 00:14:42;;;;;;;7.60;3.72;;;9.90;99.90;;;;;;5028804;28;20033;-58
2023/12/28 00:17:08;;;;;;;6.65;4.05;;;9.90;99.90;;;;;;5028585;28;20045;-58
2023/12/28 00:19:33;;;;;;;7.82;4.05;;;9.90;99.90;;;;;;5028472;28;20611;-60
2023/12/28 00:21:59;;;;;;;11.65;4.32;;;10.00;99.90;;;;;;5081901;28;20086;-59
2023/12/28 00:24:24;;;;;;;10.95;4.18;;;9.90;99.90;;;;;;5111553;27;20035;-60
2023/12/28 00:26:50;;;;;;;10.23;3.88;;;10.10;99.90;;;;;;5111473;28;20039;-60
2023/12/28 00:29:16;;;;;;;7.72;3.65;;;9.90;99.90;;;;;;5112167;28;20039;-59
2023/12/28 00:31:41;;;;;;;8.15;3.85;;;9.90;99.90;;;;;;5111697;28;20032;-60
2023/12/28 00:34:07;;;;;;;8.40;4.18;;;10.10;99.90;;;;;;5112063;28;20036;-59
2023/12/28 00:36:33;;;;;;;8.60;3.75;;;10.00;99.90;;;;;;5107699;28;20559;-58
2023/12/28 00:38:58;;;;;;;9.07;3.63;;;10.20;99.90;;;;;;5111614;28;20571;-60
2023/12/28 00:41:24;;;;;;;7.45;3.75;;;10.10;99.90;;;;;;5111113;28;20062;-59
2023/12/28 00:43:50;;;;;;;7.85;3.65;;;10.10;99.90;;;;;;5111421;28;20063;-59
2023/12/28 00:46:15;;;;;;;8.57;4.28;;;10.20;99.90;;;;;;5111496;28;20040;-60
2023/12/28 00:48:41;;;;;;;7.93;3.88;;;9.90;99.90;;;;;;5091583;28;20043;-59
2023/12/28 00:51:07;;;;;;;10.30;4.00;;;10.00;99.90;;;;;;5104340;28;20092;-59
2023/12/28 00:53:33;;;;;;;7.82;4.10;;;10.10;99.90;;;;;;5111159;28;20043;-57
2023/12/28 00:55:58;;;;;;;8.68;3.53;;;9.90;99.90;;;;;;5104396;28;20122;-60
2023/12/28 00:58:24;;;;;;;9.35;4.20;;;10.10;99.90;;;;;;5110954;28;20050;-59
2023/12/28 01:00:53;;;;;;;7.53;4.03;;;10.00;99.90;;;;;;5110816;28;20095;-59
2023/12/28 01:03:19;;;;;;;8.63;3.75;;;10.30;99.90;;;;;;5111363;28;20028;-59
2023/12/28 01:05:47;;;;;;;9.18;4.25;;;10.10;99.90;;;;;;5111183;28;20039;-58
2023/12/28 01:08:13;;;;;;;7.28;4.00;;;10.10;99.90;;;;;;5106516;28;20050;-59
2023/12/28 01:10:38;;;;;;;11.13;4.38;;;9.80;99.90;;;;;;5080850;28;20065;-59
2023/12/28 01:13:04;;;;;;;9.77;4.20;;;9.80;99.90;;;;;;5065682;28;20139;-59
2023/12/28 01:15:30;;;;;;;9.52;4.05;;;9.90;99.90;;;;;;5101039;28;20063;-59
2023/12/28 01:17:56;;;;;;;12.27;3.95;;;9.90;99.90;;;;;;5110790;28;20027;-59
2023/12/28 01:20:22;;;;;;;12.43;4.15;;;10.00;99.90;;;;;;5110941;28;20048;-59
2023/12/28 01:22:49;;;;;;;10.70;4.28;;;9.90;99.90;;;;;;5111206;28;20047;-59
2023/12/28 01:25:15;;;;;;;10.93;3.90;;;9.90;99.90;;;;;;5110621;28;20129;-59
2023/12/28 01:27:41;;;;;;;15.60;4.30;;;9.90;99.90;;;;;;5110830;28;20035;-59
2023/12/28 01:30:07;;;;;;;11.80;3.83;;;10.00;99.90;;;;;;5101846;28;20234;-60
2023/12/28 01:32:33;;;;;;;10.95;4.18;;;10.30;99.90;;;;;;5096175;28;20039;-59
2023/12/28 01:34:59;;;;;;;12.00;4.05;;;10.30;99.90;;;;;;5084056;28;20390;-58
2023/12/28 01:37:24;;;;;;;14.48;4.45;;;10.10;99.90;;;;;;5086549;28;20047;-59
2023/12/28 01:39:50;;;;;;;12.75;4.07;;;10.20;99.90;;;;;;5093690;28;20554;-60
2023/12/28 01:42:15;;;;;;;12.30;4.00;;;10.20;99.90;;;;;;5110725;28;20416;-60
2023/12/28 01:44:41;;;;;;;9.90;3.95;;;10.30;99.90;;;;;;5110868;28;20168;-59
2023/12/28 01:47:07;;;;;;;11.10;3.90;;;10.20;99.90;;;;;;5110659;28;20044;-58
2023/12/28 01:49:34;;;;;;;14.02;4.20;;;10.10;99.90;;;;;;5110718;28;20047;-58
2023/12/28 01:52:01;;;;;;;16.67;4.57;;;10.10;99.90;;;;;;5011235;28;20039;-59
2023/12/28 01:54:27;;;;;;;16.27;4.30;;;10.30;99.90;;;;;;5029621;28;20124;-59
2023/12/28 01:56:53;;;;;;;14.20;4.32;;;10.30;99.90;;;;;;5027345;28;20045;-59
2023/12/28 01:59:19;;;;;;;11.30;4.05;;;10.00;99.90;;;;;;5027344;28;20037;-60
2023/12/28 02:01:45;;;;;;;14.48;4.03;;;10.10;99.90;;;;;;5027622;28;20388;-59
2023/12/28 02:04:11;;;;;;;14.73;4.13;;;10.40;99.90;;;;;;5027351;28;20075;-59
2023/12/28 02:06:37;;;;;;;12.90;4.00;;;10.40;99.90;;;;;;5038010;28;20044;-59
2023/12/28 02:09:03;;;;;;;13.15;3.97;;;10.30;99.90;;;;;;5110696;28;20040;-59
2023/12/28 02:11:28;;;;;;;13.00;4.00;;;10.10;99.90;;;;;;5028928;28;20080;-59
2023/12/28 02:13:54;;;;;;;12.10;3.83;;;10.20;99.90;;;;;;5027077;28;20044;-59
2023/12/28 02:16:36;;;;;;;8.68;3.28;;;10.30;99.90;;;;;;5027321;28;20124;-59
2023/12/28 02:19:15;;;;;;;12.05;3.80;;;10.50;99.90;;;;;;5049508;28;20496;-59
2023/12/28 02:21:41;;;;;;;13.48;3.50;;;10.40;99.90;;;;;;5110247;28;20126;-60
2023/12/28 02:24:06;;;;;;;10.95;3.90;;;10.40;99.90;;;;;;5110248;28;20070;-59
2023/12/28 02:26:32;;;;;;;14.20;4.18;;;10.40;99.90;;;;;;5114339;28;20093;-59
2023/12/28 02:28:58;;;;;;;8.65;3.20;;;10.30;99.90;;;;;;5114264;28;20047;-59
2023/12/28 02:31:37;;;;;;;12.90;3.47;;;10.60;99.90;;;;;;5113752;28;20071;-59
2023/12/28 02:34:16;;;;;;;10.40;3.33;;;10.30;99.90;;;;;;5114254;28;20501;-59
2023/12/28 02:36:45;;;;;;;11.38;3.20;;;10.30;99.90;;;;;;5108787;27;20039;-58
2023/12/28 02:39:15;;;;;;;17.38;3.70;;;10.70;99.90;;;;;;5113768;28;20595;-59
2023/12/28 02:41:43;;;;;;;9.98;2.97;;;10.70;99.90;;;;;;5113859;28;20088;-59
2023/12/28 02:44:09;;;;;;;13.00;2.90;;;10.70;99.90;;;;;;5103360;28;20551;-60
2023/12/28 02:46:35;;;;;;;12.05;3.17;;;10.60;99.90;;;;;;5032600;28;20174;-59
2023/12/28 02:49:00;;;;;;;9.93;2.97;;;10.70;99.90;;;;;;5051711;28;20051;-61
2023/12/28 02:51:26;;;;;;;12.38;3.13;;;10.80;99.90;;;;;;5105049;28;20039;-60
2023/12/28 02:53:52;;;;;;;11.77;3.22;;;10.60;99.90;;;;;;5113777;28;20043;-59
2023/12/28 02:56:17;;;;;;;14.43;3.10;;;11.30;99.90;;;;;;5096195;28;20492;-60
2023/12/28 02:58:43;;;;;;;12.52;3.17;;;10.90;99.90;;;;;;5112234;28;20080;-60
2023/12/28 03:01:08;;;;;;;12.57;2.72;;;10.60;99.90;;;;;;5100148;28;20036;-58
2023/12/28 03:03:34;;;;;;;14.48;2.85;;;10.70;99.90;;;;;;5111830;28;20055;-60
2023/12/28 03:06:00;;;;;;;10.82;3.17;;;10.70;99.90;;;;;;5106233;28;20459;-60
2023/12/28 03:08:26;;;;;;;11.30;3.63;;;10.70;99.90;;;;;;5108187;28;20039;-60
2023/12/28 03:10:52;;;;;;;10.30;3.15;;;10.70;99.90;;;;;;5106204;28;20499;-60
2023/12/28 03:13:18;;;;;;;10.73;3.33;;;10.90;99.90;;;;;;5108641;28;20096;-60
2023/12/28 03:15:44;;;;;;;10.45;2.88;;;11.00;99.90;;;;;;5015241;28;20049;-60
2023/12/28 03:18:09;;;;;;;9.50;2.60;;;10.80;99.90;;;;;;5029494;28;20045;-60
2023/12/28 03:20:35;;;;;;;12.60;3.45;;;10.90;99.90;;;;;;5039598;28;20043;-60
2023/12/28 03:23:01;;;;;;;11.77;2.67;;;10.80;99.90;;;;;;5113146;28;20473;-59
2023/12/28 03:25:26;;;;;;;10.60;2.75;;;10.90;99.90;;;;;;5111388;28;20114;-59
2023/12/28 03:27:52;;;;;;;12.00;3.03;;;11.00;99.90;;;;;;5112876;28;20043;-60
2023/12/28 03:30:18;;;;;;;10.27;2.50;;;11.00;99.90;;;;;;5109187;28;20035;-60
2023/12/28 03:32:43;;;;;;;9.63;3.08;;;10.70;99.90;;;;;;5113085;28;20039;-59
2023/12/28 03:35:09;;;;;;;10.38;2.50;;;10.80;99.90;;;;;;5112703;28;20047;-60
2023/12/28 03:37:34;;;;;;;10.23;2.75;;;11.00;99.90;;;;;;5112844;28;20039;-60
2023/12/28 03:40:01;;;;;;;8.88;2.45;;;11.00;99.90;;;;;;5108525;28;20127;-59
2023/12/28 03:42:26;;;;;;;9.23;2.60;;;11.00;99.90;;;;;;5112755;28;20036;-60
2023/12/28 03:44:52;;;;;;;9.02;2.13;;;11.00;99.90;;;;;;5112376;28;20050;-60
2023/12/28 03:47:17;;;;;;;6.20;2.67;;;10.90;99.90;;;;;;5111515;28;20042;-59
2023/12/28 03:49:43;;;;;;;9.43;2.20;;;11.00;99.90;;;;;;5112388;28;20073;-60
2023/12/28 03:52:09;;;;;;;13.13;3.17;;;11.00;99.90;;;;;;5112682;28;20031;-59
2023/12/28 03:54:34;;;;;;;13.25;2.60;;;11.10;99.90;;;;;;5030931;28;20098;-60
2023/12/28 03:57:00;;;;;;;14.13;3.00;;;11.00;99.90;;;;;;5051099;28;20044;-59
2023/12/28 03:59:26;;;;;;;10.35;2.50;;;11.00;99.90;;;;;;5112100;28;20244;-59
2023/12/28 04:01:51;;;;;;;11.50;2.80;;;11.00;99.90;;;;;;5111131;28;20083;-60
2023/12/28 04:04:17;;;;;;;11.70;2.65;;;11.10;99.90;;;;;;5112143;28;20090;-59
2023/12/28 04:06:43;;;;;;;11.20;2.97;;;11.10;99.90;;;;;;5112191;28;20046;-59
2023/12/28 04:09:12;;;;;;;14.43;2.85;;;11.20;99.90;;;;;;5031623;28;20475;-60
2023/12/28 04:11:38;;;;;;;12.98;2.53;;;11.10;99.90;;;;;;5028609;28;20041;-60
2023/12/28 04:14:03;;;;;;;10.35;2.47;;;11.20;99.90;;;;;;5028976;28;20049;-59
2023/12/28 04:16:29;;;;;;;16.35;2.70;;;11.20;99.90;;;;;;5028798;28;20034;-60
2023/12/28 04:18:55;;;;;;;12.52;2.65;;;11.10;99.90;;;;;;5028540;28;20057;-60
2023/12/28 04:21:21;;;;;;;13.32;2.63;;;11.00;99.90;;;;;;5027915;28;20078;-60
2023/12/28 04:23:47;;;;;;;17.83;3.15;;;11.00;99.90;;;;;;5103689;28;20028;-60
2023/12/28 04:26:13;;;;;;;12.68;2.88;;;11.10;99.90;;;;;;5110576;28;20469;-60
2023/12/28 04:28:39;;;;;;;8.35;1.90;;;11.00;99.90;;;;;;5111157;28;20500;-59
2023/12/28 04:31:05;;;;;;;14.90;2.92;;;11.00;99.90;;;;;;5098708;28;20466;-59
2023/12/28 04:33:32;;;;;;;8.15;2.40;;;10.80;99.90;;;;;;5111583;28;20039;-59
2023/12/28 04:36:03;;;;;;;13.38;2.90;;;10.90;99.90;;;;;;5110566;28;20485;-60
2023/12/28 04:38:29;;;;;;;11.73;2.40;;;10.90;99.90;;;;;;5110940;28;20429;-60
2023/12/28 04:40:54;;;;;;;13.57;3.05;;;10.80;99.90;;;;;;5111588;28;20035;-60
2023/12/28 04:43:20;;;;;;;11.32;2.67;;;10.70;99.90;;;;;;5109581;28;20027;-59
2023/12/28 04:45:46;;;;;;;13.50;2.92;;;10.70;99.90;;;;;;5105746;28;20478;-58
2023/12/28 04:48:11;;;;;;;17.30;2.78;;;10.90;99.90;;;;;;5110266;28;20122;-59
2023/12/28 04:50:37;;;;;;;13.90;2.55;;;10.80;99.90;;;;;;5111080;28;20035;-60
2023/12/28 04:53:03;;;;;;;13.50;2.53;;;10.90;99.90;;;;;;5111254;28;20044;-59
2023/12/28 04:55:29;;;;;;;11.57;3.38;;;10.90;99.90;;;;;;5109994;28;20155;-59
2023/12/28 04:57:54;;;;;;;15.30;2.70;;;10.90;99.90;;;;;;5110674;28;20035;-60
2023/12/28 05:00:20;;;;;;;12.55;2.97;;;10.80;99.90;;;;;;5110490;28;20094;-59
2023/12/28 05:02:45;;;;;;;10.63;2.40;;;11.00;99.90;;;;;;5109876;28;20044;-59
2023/12/28 05:05:15;;;;;;;16.42;3.15;;;10.90;99.90;;;;;;5023156;28;20056;-59
2023/12/28 05:07:40;;;;;;;21.27;3.40;;;11.10;99.90;;;;;;5103458;28;20054;-59
2023/12/28 05:10:06;;;;;;;13.63;2.92;;;11.00;99.90;;;;;;5111309;28;20061;-60
2023/12/28 05:12:32;;;;;;;13.40;3.03;;;11.10;99.90;;;;;;5111176;28;20038;-60
2023/12/28 05:14:58;;;;;;;15.25;2.72;;;11.10;99.90;;;;;;5111175;28;20051;-59
2023/12/28 05:17:23;;;;;;;12.02;2.58;;;11.10;99.90;;;;;;5111024;28;20048;-58
2023/12/28 05:19:49;;;;;;;15.30;2.50;;;11.10;99.90;;;;;;5110678;28;20473;-59
2023/12/28 05:22:15;;;;;;;14.38;2.60;;;11.00;99.90;;;;;;5111394;28;20040;-59
2023/12/28 05:24:40;;;;;;;16.85;2.92;;;11.00;99.90;;;;;;5110495;28;20048;-58
2023/12/28 05:27:06;;;;;;;18.02;3.05;;;11.10;99.90;;;;;;5106584;28;20042;-59
2023/12/28 05:29:31;;;;;;;15.57;3.13;;;11.10;99.90;;;;;;5110226;28;20063;-59
2023/12/28 05:31:57;;;;;;;20.65;3.22;;;11.10;99.90;;;;;;5109808;28;20412;-60
2023/12/28 05:34:23;;;;;;;14.50;2.97;;;11.10;99.90;;;;;;5110651;28;20119;-58
2023/12/28 05:36:48;;;;;;;14.75;2.65;;;11.10;99.90;;;;;;5109842;28;20028;-59
2023/12/28 05:39:14;;;;;;;13.65;3.00;;;11.20;99.90;;;;;;5110490;28;20040;-59
2023/12/28 05:41:40;;;;;;;17.90;3.10;;;11.20;99.90;;;;;;5110669;28;20085;-59
2023/12/28 05:44:06;;;;;;;14.18;2.83;;;11.20;99.90;;;;;;5102177;28;20470;-58
2023/12/28 05:46:32;;;;;;;15.95;2.72;;;11.30;99.90;;;;;;5110516;28;20126;-59
2023/12/28 05:48:58;;;;;;;14.18;2.63;;;11.20;99.90;;;;;;5110084;28;20446;-59
2023/12/28 05:51:24;;;;;;;15.48;2.65;;;11.20;99.90;;;;;;5110245;28;20398;-59
2023/12/28 05:53:49;;;;;;;12.80;3.05;;;11.20;99.90;;;;;;5109957;28;20036;-59
2023/12/28 05:56:15;;;;;;;16.55;2.50;;;11.20;99.90;;;;;;5109715;28;20151;-60
2023/12/28 05:58:41;;;;;;;15.30;2.92;;;11.30;99.90;;;;;;5109820;28;20047;-59
2023/12/28 06:01:07;;;;;;;13.32;2.97;;;11.20;99.90;;;;;;5029512;28;20088;-59
2023/12/28 06:03:32;;;;;;;12.10;2.72;;;11.10;99.90;;;;;;5030518;28;20041;-59
2023/12/28 06:05:58;;;;;;;12.57;2.50;;;11.20;99.90;;;;;;5030836;28;20061;-59
2023/12/28 06:08:24;;;;;;;14.57;2.90;;;11.20;99.90;;;;;;5030631;28;20041;-59
2023/12/28 06:10:50;;;;;;;13.32;2.78;;;11.10;99.90;;;;;;5030678;28;20538;-59
2023/12/28 06:13:15;;;;;;;14.90;2.53;;;11.20;99.90;;;;;;5030733;28;20483;-58
2023/12/28 06:15:41;;;;;;;8.65;2.42;;;11.10;99.90;;;;;;5042277;28;20141;-59
2023/12/28 06:18:07;;;;;;;24.38;3.85;;;11.20;99.90;;;;;;5113569;28;20390;-59
2023/12/28 06:20:32;;;;;;;22.40;4.05;;;11.10;99.90;;;;;;5113933;28;20092;-58
2023/12/28 06:22:58;;;;;;;12.13;2.60;;;11.20;99.90;;;;;;5030616;28;20045;-58
2023/12/28 06:25:24;;;;;;;14.95;2.92;;;11.20;99.90;;;;;;5028250;28;20041;-60
2023/12/28 06:27:49;;;;;;;18.10;2.97;;;11.20;99.90;;;;;;5029381;28;20037;-59
2023/12/28 06:30:15;;;;;;;16.50;2.92;;;11.30;99.90;;;;;;5028720;28;20383;-59
2023/12/28 06:32:41;;;;;;;16.00;2.88;;;11.30;99.90;;;;;;5078137;28;20448;-59
2023/12/28 06:35:07;;;;;;;16.73;2.95;;;11.30;99.90;;;;;;5104135;28;20054;-59
2023/12/28 06:37:32;;;;;;;13.23;2.78;;;11.30;99.90;;;;;;5113164;28;20096;-59
2023/12/28 06:39:58;;;;;;;15.23;2.70;;;11.30;99.90;;;;;;5106189;28;20067;-58
2023/12/28 06:42:24;;;;;;;19.25;3.13;;;11.40;99.90;;;;;;5113632;28;20036;-59
2023/12/28 06:44:49;;;;;;;18.90;2.95;;;11.30;99.90;;;;;;5108034;28;20035;-59
2023/12/28 06:47:15;;;;;;;17.05;2.80;;;11.30;99.90;;;;;;5108915;28;20039;-59
2023/12/28 06:49:41;;;;;;;21.30;3.40;;;11.40;99.90;;;;;;5102163;28;20039;-59
2023/12/28 06:52:06;;;;;;;12.63;2.75;;;11.40;99.90;;;;;;5105387;28;20122;-59
2023/12/28 06:54:32;;;;;;;18.73;3.20;;;11.30;99.90;;;;;;5113651;28;20466;-59
2023/12/28 06:56:58;;;;;;;15.88;3.20;;;11.30;99.90;;;;;;5098893;28;20486;-59
2023/12/28 06:59:23;;;;;;;17.02;3.05;;;11.30;99.90;;;;;;5113003;28;20040;-60
2023/12/28 07:01:49;;;;;;;17.25;3.72;;;11.30;99.90;;;;;;5105785;28;20147;-58
2023/12/28 07:04:15;;;;;;;19.90;3.33;;;11.30;99.90;;;;;;5105480;27;20070;-58
2023/12/28 07:06:41;;;;;;;15.77;2.75;;;11.40;99.90;;;;;;5113524;28;20031;-58
2023/12/28 07:09:07;;;;;;;15.77;3.25;;;11.30;99.90;;;;;;5109681;28;20027;-59
2023/12/28 07:11:32;;;;;;;19.48;3.13;;;11.40;99.90;;;;;;5034089;28;20120;-59
2023/12/28 07:13:58;;;;;;;19.67;3.10;;;11.30;99.90;;;;;;5029609;28;20033;-59
2023/12/28 07:16:24;;;;;;;18.85;3.55;;;11.40;99.90;;;;;;5029742;28;20049;-59
2023/12/28 07:18:49;;;;;;;15.68;3.53;;;11.40;99.90;;;;;;5064186;28;20480;-58
2023/12/28 07:21:15;;;;;;;18.77;2.90;;;11.30;99.90;;;;;;5113069;28;20039;-59
2023/12/28 07:23:41;;;;;;;15.55;3.13;;;11.30;99.90;;;;;;5113131;28;20475;-60
2023/12/28 07:26:06;;;;;;;22.10;3.45;;;11.30;99.90;;;;;;5112218;28;20031;-59
2023/12/28 07:28:32;;;;;;;16.65;3.20;;;11.40;99.90;;;;;;5108933;28;20066;-59
2023/12/28 07:30:58;;;;;;;16.55;3.13;;;11.30;99.90;;;;;;5112187;28;20402;-58
2023/12/28 07:33:23;;;;;;;18.00;3.30;;;11.40;99.90;;;;;;5112135;28;20114;-59
2023/12/28 07:35:49;;;;;;;23.95;4.05;;;11.30;99.90;;;;;;5112811;28;20040;-60
2023/12/28 07:38:15;;;;;;;23.08;3.55;;;11.30;99.90;;;;;;5029366;28;20033;-59
2023/12/28 07:40:41;;;;;;;20.27;3.88;;;11.40;99.90;;;;;;5028741;28;20033;-58
2023/12/28 07:43:07;;;;;;;19.52;3.72;;;11.30;99.90;;;;;;5057252;28;20042;-59
2023/12/28 07:45:33;;;;;;;20.13;3.65;;;11.30;99.90;;;;;;5028493;28;20046;-59
2023/12/28 07:48:01;;;;;;;23.33;4.18;;;11.20;99.90;;;;;;5028283;28;20390;-60
2023/12/28 07:50:27;;;;;;;17.00;3.50;;;11.10;99.90;;;;;;5112256;28;20089;-59
2023/12/28 07:52:53;;;;;;;25.48;3.72;;;11.10;99.90;;;;;;5111958;28;20035;-59
2023/12/28 07:55:19;;;;;;;20.45;3.63;;;11.10;99.90;;;;;;5102442;28;20442;-59
2023/12/28 07:57:45;;;;;;;27.15;3.63;;;11.10;99.90;;;;;;5069054;28;20049;-59
2023/12/28 08:00:11;;;;;;;24.05;3.90;;;11.10;99.90;;;;;;5013552;28;20384;-59
2023/12/28 08:02:37;;;;;;;22.33;4.13;;;11.10;99.90;;;;;;5105522;28;20055;-59
2023/12/28 08:05:04;;;;;;;21.40;3.70;;;11.10;99.90;;;;;;5111662;28;20035;-59
2023/12/28 08:07:30;;;;;;;17.13;3.63;;;11.20;99.90;;;;;;5112242;28;20036;-59
2023/12/28 08:09:56;;;;;;;22.38;3.80;;;11.20;99.90;;;;;;5112063;28;20037;-60
2023/12/28 08:12:21;;;;;;;21.42;3.58;;;11.20;99.90;;;;;;5112011;28;20474;-59
2023/12/28 08:14:47;;;;;;;19.25;3.80;;;11.30;99.90;;;;;;5111055;28;20043;-58
2023/12/28 08:17:13;;;;;;;26.45;3.83;;;11.30;99.90;;;;;;5111616;28;20086;-59
2023/12/28 08:19:39;;;;;;;19.85;3.65;;;11.30;99.90;;;;;;5111053;28;20052;-58
2023/12/28 08:22:04;;;;;;;21.38;4.18;;;11.20;99.90;;;;;;5105464;28;20110;-59
2023/12/28 08:24:30;;;;;;;27.05;4.40;;;11.20;99.90;;;;;;5030213;28;20033;-60
2023/12/28 08:26:59;;;;;;;17.17;3.55;;;11.20;99.90;;;;;;5041948;28;20077;-58
2023/12/28 08:29:26;;;;;;;23.00;3.80;;;11.10;99.90;;;;;;5104769;28;20504;-59
2023/12/28 08:31:52;;;;;;;18.40;3.15;;;11.20;99.90;;;;;;5110691;28;20036;-58
2023/12/28 08:34:18;;;;;;;23.33;4.32;;;11.20;99.90;;;;;;5111696;28;20039;-60
2023/12/28 08:36:43;;;;;;;20.73;3.60;;;11.10;99.90;;;;;;5111718;28;20084;-59
2023/12/28 08:39:09;;;;;;;24.13;4.15;;;11.20;99.90;;;;;;5072664;28;20049;-59
2023/12/28 08:41:35;;;;;;;31.45;4.38;;;11.20;99.90;;;;;;5027811;28;20632;-58
2023/12/28 08:44:01;;;;;;;27.40;4.63;;;11.20;99.90;;;;;;5014824;28;20038;-59
2023/12/28 08:46:27;;;;;;;18.67;3.88;;;11.30;99.90;;;;;;5019587;28;20076;-58
2023/12/28 08:48:53;;;;;;;20.48;4.15;;;11.30;99.90;;;;;;5032376;28;20114;-59
2023/12/28 08:51:18;;;;;;;21.33;3.38;;;11.30;99.90;;;;;;5030765;28;20050;-60
2023/12/28 08:53:44;;;;;;;20.15;4.22;;;11.30;99.90;;;;;;5022284;28;20031;-59
2023/12/28 08:56:19;;;;;;;23.02;3.80;;;11.20;99.90;;;;;;5022613;28;20069;-59
2023/12/28 08:58:47;;;;;;;20.55;3.50;;;11.30;99.90;;;;;;5003868;28;20076;-59
2023/12/28 09:01:25;;;;;;;21.75;4.15;;;11.20;99.90;;;;;;5017881;28;20071;-59
2023/12/28 09:03:52;;;;;;;22.88;3.80;;;11.30;99.90;;;;;;4989112;28;20030;-59
2023/12/28 09:06:18;;;;;;;20.25;3.15;;;11.40;99.90;;;;;;5007635;28;20385;-60
2023/12/28 09:08:46;;;;;;;22.67;3.22;;;11.40;99.90;;;;;;5021374;28;20042;-59
2023/12/28 09:11:12;;;;;;;26.00;4.13;;;11.40;99.90;;;;;;5010082;28;20077;-59
2023/12/28 09:13:38;;;;;;;18.02;3.78;;;11.50;99.90;;;;;;5001274;28;20176;-59
2023/12/28 09:16:05;;;;;;;18.48;3.53;;;11.40;99.90;;;;;;5005583;28;20048;-58
2023/12/28 09:18:31;;;;;;;18.77;3.50;;;11.50;99.90;;;;;;5012708;28;20046;-59
2023/12/28 09:20:57;;;;;;;20.73;3.50;;;11.50;99.90;;;;;;5022461;28;20073;-59
2023/12/28 09:23:22;;;;;;;20.45;3.97;;;11.50;99.90;;;;;;5016496;28;20531;-59
2023/12/28 09:25:49;;;;;;;18.52;3.42;;;11.50;99.90;;;;;;5012057;28;20067;-59
2023/12/28 09:28:14;;;;;;;20.40;3.55;;;11.40;99.90;;;;;;5008296;28;20042;-59
2023/12/28 09:30:40;;;;;;;21.67;3.95;;;11.50;99.90;;;;;;5011270;28;20039;-59
2023/12/28 09:33:06;;;;;;;17.95;3.38;;;11.50;99.90;;;;;;5019828;28;20623;-60
2023/12/28 09:35:31;;;;;;;19.80;4.10;;;11.40;99.90;;;;;;5021846;28;20480;-59
2023/12/28 09:37:57;;;;;;;21.00;4.10;;;11.40;99.90;;;;;;4996791;28;20052;-59
2023/12/28 09:40:24;;;;;;;18.35;3.40;;;11.50;99.90;;;;;;4993730;28;20030;-59
2023/12/28 09:43:19;;;;;;;19.77;3.75;;;11.50;99.90;;;;;;5024016;28;20375;-59
2023/12/28 09:45:48;;;;;;;23.38;3.78;;;11.60;99.90;;;;;;5022566;28;20535;-59
2023/12/28 09:48:17;;;;;;;19.40;3.40;;;11.50;99.90;;;;;;5011399;28;20085;-59
2023/12/28 09:50:44;;;;;;;23.08;3.88;;;11.60;99.90;;;;;;4994276;28;20038;-60
2023/12/28 09:53:09;;;;;;;25.60;3.78;;;11.60;99.90;;;;;;5011564;28;20045;-58
2023/12/28 09:55:35;;;;;;;17.65;3.17;;;11.60;99.90;;;;;;5008004;28;20043;-59
2023/12/28 09:58:05;;;;;;;18.15;3.58;;;11.60;99.90;;;;;;5016046;28;20070;-58
2023/12/28 10:00:31;;;;;;;18.20;4.13;;;11.70;99.90;;;;;;5016875;28;20035;-59
2023/12/28 10:02:57;;;;;;;22.10;3.70;;;11.60;99.90;;;;;;5021597;28;20042;-58
2023/12/28 10:05:23;;;;;;;23.42;4.97;;;11.60;99.90;;;;;;5006180;28;20044;-59
2023/12/28 10:07:50;;;;;;;23.20;3.67;;;11.60;99.90;;;;;;5011249;28;20039;-60
2023/12/28 10:10:16;;;;;;;17.88;3.35;;;11.70;99.90;;;;;;5015097;28;20052;-59
2023/12/28 10:12:42;;;;;;;23.15;3.65;;;11.70;99.90;;;;;;5015254;28;20046;-60
2023/12/28 10:15:08;;;;;;;23.38;3.88;;;11.80;99.90;;;;;;5029338;28;20038;-59
2023/12/28 10:17:37;;;;;;;24.08;3.95;;;11.70;99.90;;;;;;5015917;28;20042;-59
2023/12/28 10:20:07;;;;;;;25.80;4.13;;;11.70;99.90;;;;;;5020803;28;21114;-59
2023/12/28 10:22:33;;;;;;;18.50;4.05;;;11.70;99.90;;;;;;5011916;28;20067;-60
2023/12/28 10:25:03;;;;;;;23.92;3.78;;;11.70;99.90;;;;;;5022720;28;20060;-59
2023/12/28 10:27:29;;;;;;;21.05;3.97;;;11.70;99.90;;;;;;5023275;28;20068;-59
2023/12/28 10:29:55;;;;;;;27.10;4.45;;;11.70;99.90;;;;;;5023113;28;20031;-59
2023/12/28 10:32:24;;;;;;;25.55;4.38;;;11.70;99.90;;;;;;5019751;28;20030;-59
2023/12/28 10:34:53;;;;;;;25.10;3.50;;;11.70;99.90;;;;;;5018082;28;20038;-60
2023/12/28 10:37:21;;;;;;;19.52;3.72;;;11.70;99.90;;;;;;5023123;28;20036;-60
2023/12/28 10:39:49;;;;;;;22.02;3.58;;;11.70;99.90;;;;;;5018272;28;20044;-59
2023/12/28 10:42:29;;;;;;;23.60;4.07;;;11.70;99.90;;;;;;5006943;28;20117;-59
2023/12/28 10:45:08;;;;;;;18.38;3.30;;;11.70;99.90;;;;;;5013662;28;20485;-59
2023/12/28 10:47:37;;;;;;;18.60;3.33;;;11.60;99.90;;;;;;5017993;28;20047;-60
2023/12/28 10:50:05;;;;;;;23.90;3.65;;;11.60;99.90;;;;;;5020244;28;20426;-60
2023/12/28 10:52:33;;;;;;;23.90;4.15;;;11.70;99.90;;;;;;5019502;28;20175;-59
2023/12/28 10:55:14;;;;;;;21.60;3.97;;;11.70;99.90;;;;;;5008521;28;20031;-60
2023/12/28 10:58:03;;;;;;;25.08;4.28;;;11.70;99.90;;;;;;5007757;28;20093;-60
2023/12/28 11:00:33;;;;;;;25.15;3.95;;;11.70;99.90;;;;;;5008963;28;20496;-59
2023/12/28 11:03:03;;;;;;;25.13;4.70;;;11.80;99.90;;;;;;5025598;28;20066;-59
2023/12/28 11:05:29;;;;;;;20.42;3.63;;;11.80;99.90;;;;;;5021044;28;20027;-58
2023/12/28 11:07:58;;;;;;;19.75;3.17;;;11.90;99.90;;;;;;5005583;28;20041;-58
2023/12/28 11:10:24;;;;;;;20.17;3.90;;;11.90;99.90;;;;;;5019703;28;20421;-59
2023/12/28 11:12:53;;;;;;;26.45;4.38;;;11.90;99.90;;;;;;5014677;28;20066;-60
2023/12/28 11:15:19;;;;;;;19.67;3.35;;;11.90;99.90;;;;;;5022608;27;20076;-57
2023/12/28 11:17:45;;;;;;;18.67;3.83;;;11.90;99.90;;;;;;5011357;28;20050;-60
2023/12/28 11:20:11;;;;;;;21.23;3.90;;;11.90;99.90;;;;;;5007157;28;20107;-59
2023/12/28 11:22:38;;;;;;;24.73;3.45;;;11.80;99.90;;;;;;5021224;28;20705;-59
2023/12/28 11:25:08;;;;;;;21.13;3.47;;;11.90;99.90;;;;;;5018072;28;20519;-59
2023/12/28 11:27:36;;;;;;;21.13;3.65;;;11.90;99.90;;;;;;5013328;28;20048;-58
2023/12/28 11:30:06;;;;;;;20.55;3.65;;;11.80;99.90;;;;;;5016839;28;20069;-59
2023/12/28 11:32:36;;;;;;;22.73;3.70;;;11.90;99.90;;;;;;5025135;28;20511;-59
2023/12/28 11:35:02;;;;;;;18.38;3.42;;;11.80;99.90;;;;;;5028075;28;20053;-59
2023/12/28 11:37:29;;;;;;;21.48;3.45;;;11.90;99.90;;;;;;5025949;28;20050;-59
2023/12/28 11:39:57;;;;;;;20.85;3.90;;;11.80;99.90;;;;;;5024726;28;20122;-59
2023/12/28 11:42:23;;;;;;;27.25;3.80;;;11.90;99.90;;;;;;5021973;28;20317;-58
2023/12/28 11:44:54;;;;;;;20.27;3.50;;;11.80;99.90;;;;;;5030912;28;20034;-58
2023/12/28 11:47:29;;;;;;;25.15;4.05;;;11.90;99.90;;;;;;5023167;28;20038;-57
2023/12/28 11:49:54;;;;;;;20.75;4.18;;;11.80;99.90;;;;;;5027453;28;20091;-60
2023/12/28 11:52:31;;;;;;;27.40;4.35;;;11.80;99.90;;;;;;5018324;27;20034;-59
2023/12/28 11:54:59;;;;;;;23.45;3.80;;;11.80;99.90;;;;;;5030903;28;20036;-60
2023/12/28 11:57:25;;;;;;;24.45;4.65;;;11.80;99.90;;;;;;5004266;28;20129;-60
2023/12/28 11:59:59;;;;;;;21.25;3.65;;;11.90;99.90;;;;;;5017990;28;20111;-58
2023/12/28 12:02:25;;;;;;;21.63;3.85;;;11.80;99.90;;;;;;5032501;28;20865;-59
2023/12/28 12:04:51;;;;;;;23.38;4.22;;;11.90;99.90;;;;;;5035689;28;20052;-59
2023/12/28 12:07:17;;;;;;;22.50;3.70;;;11.90;99.90;;;;;;5023870;28;20038;-58
2023/12/28 12:09:43;;;;;;;29.75;3.95;;;12.00;99.90;;;;;;5023312;28;20083;-59
2023/12/28 12:12:09;;;;;;;26.60;4.38;;;11.90;99.90;;;;;;5027071;28;20032;-58
2023/12/28 12:14:35;;;;;;;25.65;4.75;;;11.90;99.90;;;;;;5027232;28;20039;-60
2023/12/28 12:17:01;;;;;;;26.13;4.03;;;11.90;99.90;;;;;;4992101;28;20049;-57
2023/12/28 12:19:28;;;;;;;21.38;3.63;;;12.00;99.90;;;;;;5038228;28;20127;-58
2023/12/28 12:21:54;;;;;;;25.45;4.53;;;11.90;99.90;;;;;;5013265;28;20039;-59
2023/12/28 12:24:21;;;;;;;25.77;3.97;;;12.00;99.90;;;;;;4994658;28;20549;-58
2023/12/28 12:26:47;;;;;;;29.33;5.20;;;12.00;99.90;;;;;;5025488;28;20038;-58
2023/12/28 12:29:16;;;;;;;20.20;3.78;;;11.90;99.90;;;;;;5046714;28;20054;-58
2023/12/28 12:31:42;;;;;;;28.67;4.50;;;12.00;99.90;;;;;;5011314;28;20037;-59
2023/12/28 12:34:12;;;;;;;22.40;3.70;;;12.00;99.90;;;;;;5036008;28;20049;-59